PKWA/KWA METAR and TAF weather

Enter ICAO airport designator
Station Type Date Time Source
PKWA METAR 2022/09/28 19:00 UTC NOAA

PKWA 281900Z AUTO 18012KT 10SM -DZ SCT017 26/23 A2983 RMK AO2 T02570234


Station Type Date Time Source
PKWA Decoded METAR 2022/09/28 19:00 UTC NOAA

Kwajalein, Bucholz AAF, Kwajalein KMR ATOL Airport, Marshall Islands (PKWA) 08-43N 167-44E 2M
Sep 28, 2022 - 03:00 PM EDT / 2022.09.28 1900 UTC
Wind: from the S (180 degrees) at 14 MPH (12 KT):0
Visibility: 10 mile(s):0
Sky conditions: partly cloudy
Weather: light drizzle
Temperature: 78.3 F (25.7 C)
Dew Point: 74.1 F (23.4 C)
Relative Humidity: 87%
Pressure (altimeter): 29.83 in. Hg (1010 hPa)
ob: PKWA 281900Z AUTO 18012KT 10SM -DZ SCT017 26/23 A2983 RMK AO2 T02570234
cycle: 19

Station Type Date Time Source
PKWA TAF 2022/09/28 18:39 UTC NOAA

TAF
AMD PKWA 281818Z 2818/2918 09020KT P6SM -RA SCT012 BKN020 OVC120
TEMPO 2818/2819 3SM SHRA
FM282000 09015KT P6SM VCSH SCT012 BKN050 OVC120

Example: see airport list